Time;durP1;ratioP1;P1;durP2;ratioP2;P2;SDS_P1;SDS_P2;PMS_P1;PMS_P2;Temp;Humidity;BMP_temperature;BMP_pressure;BME280_temperature;BME280_humidity;BME280_pressure;Samples;Min_cycle;Max_cycle;Signal;HPM_P1;HPM_P2
2021/04/27 00:02:18;;;;;;;8.75;3.50;;;15.40;99.90;;;;;;6346651;22;20417;-83
2021/04/27 00:04:45;;;;;;;12.55;3.50;;;15.40;99.90;;;;;;6339623;22;20030;-83
2021/04/27 00:07:11;;;;;;;8.02;3.50;;;15.40;99.90;;;;;;6339515;22;19994;-84
2021/04/27 00:09:37;;;;;;;6.50;3.10;;;15.30;99.90;;;;;;6339404;22;20007;-83
2021/04/27 00:12:04;;;;;;;7.50;3.35;;;15.40;99.90;;;;;;6339422;22;19999;-83
2021/04/27 00:14:31;;;;;;;7.07;2.95;;;15.40;99.90;;;;;;6312179;22;20330;-78
2021/04/27 00:16:57;;;;;;;8.10;3.00;;;15.40;99.90;;;;;;6339666;22;20051;-82
2021/04/27 00:19:23;;;;;;;9.45;3.25;;;15.30;99.90;;;;;;6339326;22;20376;-83
2021/04/27 00:21:48;;;;;;;5.82;3.33;;;15.30;99.90;;;;;;6339484;22;20070;-79
2021/04/27 00:24:14;;;;;;;5.78;2.58;;;15.30;99.90;;;;;;6339507;22;19995;-84
2021/04/27 00:26:40;;;;;;;9.05;4.10;;;15.30;99.90;;;;;;6339341;22;20333;-84
2021/04/27 00:29:06;;;;;;;8.15;2.70;;;15.30;99.90;;;;;;6339392;22;19995;-81
2021/04/27 00:31:33;;;;;;;7.13;2.83;;;15.30;99.90;;;;;;6339594;22;20007;-83
2021/04/27 00:34:00;;;;;;;4.65;2.72;;;15.30;99.90;;;;;;6339451;22;20038;-79
2021/04/27 00:36:27;;;;;;;8.07;3.65;;;15.30;99.90;;;;;;6339179;22;19998;-78
2021/04/27 00:38:53;;;;;;;6.18;2.40;;;15.30;99.90;;;;;;6339235;22;20010;-84
2021/04/27 00:41:19;;;;;;;5.05;2.40;;;15.40;99.90;;;;;;6339154;22;19999;-78
2021/04/27 00:43:46;;;;;;;7.07;2.88;;;15.30;99.90;;;;;;6339266;22;20003;-84
2021/04/27 00:46:13;;;;;;;10.18;3.22;;;15.30;99.90;;;;;;6339301;22;20003;-78
2021/04/27 00:48:39;;;;;;;5.63;2.40;;;15.30;99.90;;;;;;6339307;22;19998;-78
2021/04/27 00:51:05;;;;;;;4.90;2.72;;;15.30;99.90;;;;;;6339077;22;20438;-84
2021/04/27 00:53:32;;;;;;;9.00;2.40;;;15.30;99.90;;;;;;6338965;22;20022;-83
2021/04/27 00:55:58;;;;;;;7.47;2.85;;;15.30;99.90;;;;;;6339069;22;20492;-79
2021/04/27 00:58:26;;;;;;;8.10;3.28;;;15.30;99.90;;;;;;6338904;22;20034;-78
2021/04/27 01:00:53;;;;;;;7.70;2.83;;;15.20;99.90;;;;;;6339291;22;20011;-84
2021/04/27 01:03:20;;;;;;;7.03;2.80;;;15.20;99.90;;;;;;6338948;22;20003;-78
2021/04/27 01:05:46;;;;;;;8.25;2.78;;;15.20;99.90;;;;;;6339319;22;20006;-83
2021/04/27 01:08:32;;;;;;;9.18;3.75;;;15.20;99.90;;;;;;6338812;22;20007;-81
2021/04/27 01:11:15;;;;;;;9.13;3.47;;;15.10;99.90;;;;;;6311351;22;20451;-80
2021/04/27 01:13:57;;;;;;;6.55;3.20;;;15.10;99.90;;;;;;6339223;22;20082;-85
2021/04/27 01:16:24;;;;;;;8.00;3.50;;;15.10;99.90;;;;;;6349857;22;20014;-78
2021/04/27 01:18:52;;;;;;;8.32;3.70;;;15.10;99.90;;;;;;6339091;22;20003;-83
2021/04/27 01:21:21;;;;;;;11.63;3.85;;;15.00;99.90;;;;;;6311335;22;20034;-80
2021/04/27 01:23:47;;;;;;;11.15;3.40;;;15.10;99.90;;;;;;6338758;22;20010;-78
2021/04/27 01:26:19;;;;;;;10.38;3.65;;;15.00;99.90;;;;;;6338849;22;20024;-78
2021/04/27 01:28:50;;;;;;;7.05;3.50;;;15.00;99.90;;;;;;6311180;22;19995;-80
2021/04/27 01:31:17;;;;;;;6.82;3.22;;;15.00;99.90;;;;;;6311309;22;20006;-84
2021/04/27 01:33:44;;;;;;;9.65;3.95;;;14.90;99.90;;;;;;6311024;22;20002;-84
2021/04/27 01:36:12;;;;;;;7.93;3.35;;;14.90;99.90;;;;;;6311043;22;20063;-82
2021/04/27 01:38:47;;;;;;;12.50;4.75;;;14.90;99.90;;;;;;6311142;22;20085;-84
2021/04/27 01:41:14;;;;;;;12.88;4.13;;;14.80;99.90;;;;;;6311061;22;20006;-79
2021/04/27 01:43:42;;;;;;;7.68;3.67;;;14.90;99.90;;;;;;6338689;22;20011;-82
2021/04/27 01:46:09;;;;;;;11.13;4.63;;;14.80;99.90;;;;;;6338645;22;20003;-83
2021/04/27 01:48:37;;;;;;;8.55;3.58;;;14.80;99.90;;;;;;6339066;22;20077;-81
2021/04/27 01:51:08;;;;;;;12.57;4.57;;;14.70;99.90;;;;;;6339016;22;20333;-79
2021/04/27 01:53:53;;;;;;;10.60;4.03;;;14.70;99.90;;;;;;6338617;22;20018;-78
2021/04/27 01:56:21;;;;;;;12.82;3.67;;;14.70;99.90;;;;;;6338409;22;20441;-82
2021/04/27 01:58:48;;;;;;;8.00;4.40;;;14.70;99.90;;;;;;6305501;22;20020;-83
2021/04/27 02:01:15;;;;;;;9.27;4.40;;;14.60;99.90;;;;;;6305601;22;20056;-79
2021/04/27 02:03:45;;;;;;;11.98;4.50;;;14.60;99.90;;;;;;6307643;22;20007;-82
2021/04/27 02:06:52;;;;;;;24.17;4.35;;;14.60;99.90;;;;;;6152817;23;20441;-84
2021/04/27 02:09:22;;;;;;;8.05;4.07;;;14.60;99.90;;;;;;6128193;23;20006;-83
2021/04/27 02:11:57;;;;;;;13.63;3.60;;;14.60;99.90;;;;;;6216247;22;20090;-79
2021/04/27 02:14:28;;;;;;;7.45;4.25;;;14.60;99.90;;;;;;6305558;22;20091;-84
2021/04/27 02:17:07;;;;;;;9.43;3.33;;;14.60;99.90;;;;;;6307217;22;20437;-84
2021/04/27 02:19:38;;;;;;;9.63;4.10;;;14.60;99.90;;;;;;6305474;22;20090;-79
2021/04/27 02:22:29;;;;;;;7.85;3.95;;;14.60;99.90;;;;;;6306921;22;20027;-83
2021/04/27 02:25:33;;;;;;;8.43;3.97;;;14.60;99.90;;;;;;6306877;22;20003;-84
2021/04/27 02:28:00;;;;;;;8.10;4.28;;;14.60;99.90;;;;;;6305762;22;20014;-83
2021/04/27 02:30:27;;;;;;;11.75;3.60;;;14.60;99.90;;;;;;6316733;22;20030;-84
2021/04/27 02:32:54;;;;;;;7.47;3.88;;;14.50;99.90;;;;;;6307312;22;20003;-80
2021/04/27 02:35:22;;;;;;;9.10;3.03;;;14.60;99.90;;;;;;6305381;22;20011;-84
2021/04/27 02:37:50;;;;;;;9.68;3.50;;;14.60;99.90;;;;;;6305395;22;20035;-81
2021/04/27 02:40:33;;;;;;;11.00;3.90;;;14.60;99.90;;;;;;6306880;22;20003;-83
2021/04/27 02:43:00;;;;;;;9.60;4.07;;;14.60;99.90;;;;;;6305593;22;20062;-82
2021/04/27 02:45:35;;;;;;;14.43;4.60;;;14.60;99.90;;;;;;6305233;22;20003;-81
2021/04/27 02:48:23;;;;;;;9.75;3.20;;;14.60;99.90;;;;;;6306899;22;20023;-83
2021/04/27 02:50:56;;;;;;;;;;;14.60;99.90;;;;;;6305832;22;20489;-83
2021/04/27 02:53:23;;;;;;;12.50;3.65;;;14.60;99.90;;;;;;6305252;22;19909;-84
2021/04/27 02:55:51;;;;;;;11.70;4.03;;;14.60;99.90;;;;;;6305267;22;20011;-83
2021/04/27 02:58:18;;;;;;;16.98;4.80;;;14.60;99.90;;;;;;6311988;22;20003;-84
2021/04/27 03:00:49;;;;;;;9.93;3.30;;;14.60;99.90;;;;;;6310317;22;20007;-79
2021/04/27 03:03:15;;;;;;;10.63;3.88;;;14.50;99.90;;;;;;6310358;22;20371;-83
2021/04/27 03:05:41;;;;;;;12.32;4.45;;;14.50;99.90;;;;;;6284818;22;20007;-78
2021/04/27 03:08:08;;;;;;;8.43;3.40;;;14.50;99.90;;;;;;6310470;22;20457;-79
2021/04/27 03:10:35;;;;;;;8.95;5.15;;;14.60;99.90;;;;;;6310364;22;20468;-78
2021/04/27 03:13:02;;;;;;;12.95;4.10;;;14.60;99.90;;;;;;6310798;22;20316;-84
2021/04/27 03:15:36;;;;;;;9.18;4.00;;;14.50;99.90;;;;;;6310175;22;20019;-82
2021/04/27 03:18:03;;;;;;;12.15;4.90;;;14.60;99.90;;;;;;6337893;22;20056;-84
2021/04/27 03:20:30;;;;;;;9.73;4.45;;;14.50;99.90;;;;;;6310300;22;20006;-79
2021/04/27 03:23:13;;;;;;;8.13;3.78;;;14.60;99.90;;;;;;6310688;22;20026;-84
2021/04/27 03:25:40;;;;;;;11.88;4.07;;;14.60;99.90;;;;;;6312393;22;19995;-84
2021/04/27 03:28:07;;;;;;;10.40;4.05;;;14.60;99.90;;;;;;6312502;22;20340;-84
2021/04/27 03:30:49;;;;;;;12.68;3.85;;;14.50;99.90;;;;;;6312490;22;20371;-82
2021/04/27 03:33:17;;;;;;;13.45;3.72;;;14.50;99.90;;;;;;6312319;22;20006;-79
2021/04/27 03:35:47;;;;;;;10.60;4.00;;;14.50;99.90;;;;;;6312220;22;20014;-83
2021/04/27 03:38:13;;;;;;;9.93;4.22;;;14.50;99.90;;;;;;6340123;22;20003;-82
2021/04/27 03:40:40;;;;;;;10.95;4.22;;;14.50;99.90;;;;;;6339690;22;20338;-83
2021/04/27 03:43:07;;;;;;;11.77;4.18;;;14.50;99.90;;;;;;6341655;22;20006;-79
2021/04/27 03:45:39;;;;;;;8.63;4.00;;;14.50;99.90;;;;;;6320498;22;20445;-79
2021/04/27 03:48:10;;;;;;;8.38;3.30;;;14.50;99.90;;;;;;6339877;22;20455;-84
2021/04/27 03:50:39;;;;;;;9.32;3.88;;;14.50;99.90;;;;;;6312017;22;20056;-83
2021/04/27 03:53:31;;;;;;;9.63;4.65;;;14.50;99.90;;;;;;6303770;22;20380;-83
2021/04/27 03:55:58;;;;;;;7.55;4.47;;;14.50;99.90;;;;;;6312136;22;20010;-78
2021/04/27 03:58:24;;;;;;;9.57;4.45;;;14.50;99.90;;;;;;6339224;22;20006;-79
2021/04/27 04:00:50;;;;;;;8.60;4.30;;;14.40;99.90;;;;;;6312347;22;20018;-83
2021/04/27 04:03:21;;;;;;;10.68;3.75;;;14.50;99.90;;;;;;6312583;22;19999;-82
2021/04/27 04:05:49;;;;;;;9.48;4.25;;;14.50;99.90;;;;;;6312003;22;20007;-78
2021/04/27 04:08:35;;;;;;;8.32;4.22;;;14.50;99.90;;;;;;6340095;22;20021;-84
2021/04/27 04:11:03;;;;;;;10.57;4.15;;;14.50;99.90;;;;;;6312118;22;20060;-83
2021/04/27 04:13:29;;;;;;;13.93;5.22;;;14.50;99.90;;;;;;6311883;22;20090;-82
2021/04/27 04:15:56;;;;;;;8.93;4.15;;;14.60;99.90;;;;;;6312115;22;20512;-77
2021/04/27 04:18:22;;;;;;;14.85;4.55;;;14.60;99.90;;;;;;6339399;22;20006;-77
2021/04/27 04:20:49;;;;;;;13.07;4.80;;;14.60;99.90;;;;;;6286507;22;20014;-82
2021/04/27 04:23:33;;;;;;;8.95;4.32;;;14.60;99.90;;;;;;6311964;22;20006;-80
2021/04/27 04:26:00;;;;;;;14.40;3.90;;;14.70;99.90;;;;;;6311788;22;20006;-83
2021/04/27 04:28:26;;;;;;;12.23;3.95;;;14.60;99.90;;;;;;6339295;22;20021;-77
2021/04/27 04:30:52;;;;;;;10.38;4.30;;;14.60;99.90;;;;;;6339581;22;20007;-81
2021/04/27 04:33:44;;;;;;;10.57;4.20;;;14.60;99.90;;;;;;6338733;22;19995;-82
2021/04/27 04:36:28;;;;;;;6.53;3.80;;;14.70;99.90;;;;;;6339554;22;20025;-82
2021/04/27 04:39:13;;;;;;;12.15;4.25;;;14.70;99.90;;;;;;6339472;22;20014;-82
2021/04/27 04:41:57;;;;;;;8.77;3.75;;;14.70;99.90;;;;;;6339546;22;20021;-77
2021/04/27 04:44:42;;;;;;;8.27;4.20;;;14.70;99.90;;;;;;6339308;22;20033;-82
2021/04/27 04:47:41;;;;;;;15.02;3.65;;;14.70;99.90;;;;;;6251835;22;20007;-77
2021/04/27 04:50:26;;;;;;;12.65;4.50;;;14.80;99.90;;;;;;6339237;22;20349;-81
2021/04/27 04:53:07;;;;;;;13.25;4.53;;;14.70;99.90;;;;;;6339063;22;20060;-77
2021/04/27 04:55:41;;;;;;;13.85;4.00;;;14.80;99.90;;;;;;6311627;22;20144;-78
2021/04/27 04:58:19;;;;;;;10.43;4.60;;;14.90;99.90;;;;;;6314467;22;20078;-83
2021/04/27 05:00:54;;;;;;;8.60;4.80;;;14.90;99.90;;;;;;6342514;22;20011;-82
2021/04/27 05:03:29;;;;;;;12.65;4.55;;;14.90;99.90;;;;;;6339438;22;20429;-81
2021/04/27 05:06:18;;;;;;;5.70;3.40;;;15.00;99.90;;;;;;6339197;22;20022;-81
2021/04/27 05:09:08;;;;;;;6.88;3.80;;;15.00;99.90;;;;;;6338979;22;20067;-82
2021/04/27 05:11:55;;;;;;;11.82;4.38;;;15.10;99.90;;;;;;6311441;22;20007;-83
2021/04/27 05:14:39;;;;;;;14.85;4.38;;;15.10;99.90;;;;;;6344451;22;20022;-77
2021/04/27 05:17:08;;;;;;;11.20;4.30;;;15.20;99.90;;;;;;6311284;22;20505;-83
2021/04/27 05:19:34;;;;;;;6.15;3.83;;;15.20;99.90;;;;;;6311373;22;20009;-78
2021/04/27 05:22:01;;;;;;;12.85;5.78;;;15.20;99.90;;;;;;6338738;22;19994;-83
2021/04/27 05:24:29;;;;;;;14.32;4.25;;;15.20;99.90;;;;;;6311320;22;20038;-82
2021/04/27 05:27:00;;;;;;;16.00;4.78;;;15.30;99.90;;;;;;6311308;22;20007;-78
2021/04/27 05:29:27;;;;;;;6.78;3.28;;;15.40;99.90;;;;;;6311127;22;20385;-78
2021/04/27 05:31:53;;;;;;;10.48;3.97;;;15.40;99.90;;;;;;6339040;22;20033;-83
2021/04/27 05:34:19;;;;;;;9.18;3.75;;;15.40;99.90;;;;;;6338787;22;20035;-82
2021/04/27 05:36:46;;;;;;;7.53;3.40;;;15.50;99.90;;;;;;6338768;22;20026;-82
2021/04/27 05:39:13;;;;;;;11.68;5.22;;;15.50;99.90;;;;;;6338602;22;19994;-78
2021/04/27 05:41:39;;;;;;;9.35;3.55;;;15.50;99.90;;;;;;6338633;22;20009;-81
2021/04/27 05:44:06;;;;;;;6.68;3.92;;;15.50;99.90;;;;;;6338670;22;20066;-83
2021/04/27 05:46:32;;;;;;;7.63;3.25;;;15.60;99.90;;;;;;6338346;22;20002;-77
2021/04/27 05:48:58;;;;;;;11.40;3.65;;;15.60;99.90;;;;;;6338949;22;20082;-78
2021/04/27 05:51:24;;;;;;;8.20;3.60;;;15.70;99.90;;;;;;6338730;22;20006;-83
2021/04/27 05:53:50;;;;;;;11.00;3.25;;;15.70;99.90;;;;;;6338602;22;20244;-78
2021/04/27 05:56:16;;;;;;;11.88;3.67;;;15.70;99.90;;;;;;6338710;22;20067;-79
2021/04/27 05:58:44;;;;;;;8.10;4.15;;;15.80;99.90;;;;;;6338584;22;20460;-81
2021/04/27 06:01:11;;;;;;;6.55;3.33;;;15.80;99.90;;;;;;6338440;22;20022;-83
2021/04/27 06:03:37;;;;;;;8.55;3.67;;;15.90;99.90;;;;;;6338631;22;20056;-83
2021/04/27 06:06:03;;;;;;;7.18;4.00;;;15.90;99.90;;;;;;6338689;22;20010;-80
2021/04/27 06:08:30;;;;;;;9.68;3.25;;;15.90;99.90;;;;;;6338429;22;20052;-84
2021/04/27 06:10:57;;;;;;;10.52;3.35;;;15.90;99.90;;;;;;6310977;22;20007;-78
2021/04/27 06:13:23;;;;;;;8.82;3.85;;;16.00;99.90;;;;;;6344862;22;20002;-80
2021/04/27 06:15:49;;;;;;;6.67;3.50;;;16.00;99.90;;;;;;6339828;22;20014;-77
2021/04/27 06:18:15;;;;;;;12.30;3.88;;;15.90;99.90;;;;;;6338374;22;20235;-81
2021/04/27 06:20:41;;;;;;;9.75;3.13;;;16.00;99.90;;;;;;6338567;22;20002;-81
2021/04/27 06:23:07;;;;;;;7.65;3.90;;;16.00;99.90;;;;;;6310730;22;20003;-78
2021/04/27 06:25:33;;;;;;;8.68;3.55;;;16.00;99.90;;;;;;6338338;22;20440;-79
2021/04/27 06:28:00;;;;;;;8.30;3.28;;;16.00;99.90;;;;;;6338262;22;20003;-78
2021/04/27 06:30:26;;;;;;;7.18;4.70;;;16.10;99.90;;;;;;6338422;22;20048;-82
2021/04/27 06:32:52;;;;;;;9.35;3.30;;;16.20;99.90;;;;;;6338293;22;20052;-83
2021/04/27 06:35:20;;;;;;;6.50;3.20;;;16.20;99.90;;;;;;6338319;22;20042;-82
2021/04/27 06:37:46;;;;;;;8.23;2.97;;;16.20;99.90;;;;;;6338565;22;20060;-78
2021/04/27 06:40:13;;;;;;;7.60;3.47;;;16.30;99.90;;;;;;6338313;22;20009;-82
2021/04/27 06:42:39;;;;;;;10.35;2.88;;;16.40;99.90;;;;;;6338447;22;20373;-78
2021/04/27 06:45:06;;;;;;;7.80;3.58;;;16.40;99.90;;;;;;6338284;22;19999;-80
2021/04/27 06:47:32;;;;;;;9.40;3.08;;;16.50;99.90;;;;;;6338105;22;20006;-83
2021/04/27 06:49:58;;;;;;;10.07;3.40;;;16.50;99.90;;;;;;6338253;22;20006;-81
2021/04/27 06:52:25;;;;;;;9.13;3.25;;;16.50;99.90;;;;;;6338380;22;19995;-78
2021/04/27 06:54:51;;;;;;;4.65;2.63;;;16.50;99.90;;;;;;6337973;22;20014;-83
2021/04/27 06:57:16;;;;;;;9.18;4.15;;;16.60;99.90;;;;;;6337741;22;20040;-79
2021/04/27 06:59:43;;;;;;;8.18;3.35;;;16.60;99.90;;;;;;6338145;22;20429;-83
2021/04/27 07:02:09;;;;;;;7.47;2.97;;;16.70;99.90;;;;;;6338421;22;20007;-78
2021/04/27 07:04:36;;;;;;;6.60;3.33;;;16.70;99.90;;;;;;6338078;22;20007;-82
2021/04/27 07:07:03;;;;;;;8.68;4.32;;;16.80;99.90;;;;;;6338155;22;20003;-83
2021/04/27 07:09:30;;;;;;;7.50;3.05;;;16.90;99.90;;;;;;6338687;22;20419;-83
2021/04/27 07:11:57;;;;;;;14.45;4.60;;;16.90;99.90;;;;;;6337986;22;20018;-81
2021/04/27 07:14:23;;;;;;;7.68;3.08;;;17.00;99.90;;;;;;6337954;22;20007;-84
2021/04/27 07:16:49;;;;;;;11.45;2.80;;;17.10;99.90;;;;;;6337885;22;20026;-77
2021/04/27 07:19:15;;;;;;;5.60;2.53;;;17.10;99.90;;;;;;6338249;22;19999;-77
2021/04/27 07:21:42;;;;;;;7.85;2.83;;;17.10;99.90;;;;;;6338083;22;20007;-81
2021/04/27 07:24:08;;;;;;;10.85;3.25;;;17.20;99.90;;;;;;6338188;22;20417;-78
2021/04/27 07:26:37;;;;;;;6.15;3.25;;;17.20;99.90;;;;;;6338338;22;20306;-81
2021/04/27 07:29:03;;;;;;;20.75;4.78;;;17.20;99.90;;;;;;6343988;22;20029;-83
2021/04/27 07:31:30;;;;;;;3.42;2.22;;;17.30;99.90;;;;;;6337974;22;20037;-80
2021/04/27 07:33:56;;;;;;;8.10;2.83;;;17.30;99.90;;;;;;6337786;22;19999;-82
2021/04/27 07:36:22;;;;;;;7.60;3.33;;;17.30;99.90;;;;;;6337887;22;20003;-81
2021/04/27 07:38:48;;;;;;;7.95;2.53;;;17.20;99.90;;;;;;6338317;22;20014;-81
2021/04/27 07:41:14;;;;;;;7.55;2.90;;;17.30;99.90;;;;;;6338240;22;20077;-80
2021/04/27 07:43:40;;;;;;;5.22;2.45;;;17.30;99.90;;;;;;6338062;22;20425;-77
2021/04/27 07:46:06;;;;;;;10.27;3.47;;;17.40;99.90;;;;;;6338292;22;20078;-78
2021/04/27 07:48:32;;;;;;;7.70;3.22;;;17.50;99.90;;;;;;6310243;22;20034;-80
2021/04/27 07:50:59;;;;;;;7.93;3.10;;;17.50;99.90;;;;;;6337843;22;19999;-79
2021/04/27 07:53:25;;;;;;;16.90;2.75;;;17.60;99.90;;;;;;6337930;22;19998;-79
2021/04/27 07:55:51;;;;;;;6.00;2.58;;;17.60;99.90;;;;;;6337800;22;20025;-77
2021/04/27 07:58:17;;;;;;;6.80;2.85;;;17.50;99.90;;;;;;6337868;22;20007;-78
2021/04/27 08:00:43;;;;;;;8.68;2.92;;;17.60;99.90;;;;;;6337756;22;20002;-82
2021/04/27 08:03:09;;;;;;;5.22;2.65;;;17.60;99.90;;;;;;6337779;22;19995;-82
2021/04/27 08:05:35;;;;;;;4.93;2.60;;;17.70;99.90;;;;;;6310107;22;20421;-79
2021/04/27 08:08:01;;;;;;;6.65;2.78;;;17.80;99.90;;;;;;6310164;22;20450;-81
2021/04/27 08:10:27;;;;;;;6.78;2.88;;;17.70;99.90;;;;;;6339564;22;20003;-77
2021/04/27 08:12:54;;;;;;;4.03;2.30;;;17.70;99.90;;;;;;6339467;22;20108;-81
2021/04/27 08:15:23;;;;;;;7.30;3.00;;;17.70;99.90;;;;;;6339370;22;20339;-80
2021/04/27 08:17:49;;;;;;;7.78;3.42;;;17.80;99.90;;;;;;6339572;22;20005;-82
2021/04/27 08:20:16;;;;;;;7.93;2.70;;;17.90;99.90;;;;;;6339477;22;20007;-82
2021/04/27 08:22:44;;;;;;;6.32;3.47;;;17.90;99.90;;;;;;6339443;22;20333;-84
2021/04/27 08:25:13;;;;;;;9.73;3.05;;;17.90;99.90;;;;;;6339542;22;19998;-79
2021/04/27 08:27:39;;;;;;;10.75;3.30;;;17.90;99.90;;;;;;6339872;22;20487;-83
2021/04/27 08:30:06;;;;;;;7.30;3.22;;;17.80;99.90;;;;;;6339589;22;20010;-81
2021/04/27 08:32:32;;;;;;;9.52;3.13;;;17.80;99.90;;;;;;6339311;22;20007;-83
2021/04/27 08:34:58;;;;;;;6.88;3.15;;;17.70;99.90;;;;;;6339408;22;20089;-80
2021/04/27 08:37:24;;;;;;;6.72;2.92;;;17.70;99.90;;;;;;6339263;22;20392;-78
2021/04/27 08:39:50;;;;;;;16.52;2.72;;;17.70;99.90;;;;;;6339413;22;20002;-83
2021/04/27 08:42:17;;;;;;;7.30;2.90;;;17.80;99.90;;;;;;6342940;22;20026;-83
2021/04/27 08:44:43;;;;;;;4.82;3.33;;;17.80;99.90;;;;;;6341641;22;20452;-78
2021/04/27 08:47:10;;;;;;;3.53;2.30;;;17.90;99.90;;;;;;6339405;22;20010;-83
2021/04/27 08:49:37;;;;;;;16.63;3.90;;;17.90;99.90;;;;;;6339427;22;20298;-83
2021/04/27 08:52:04;;;;;;;4.93;2.88;;;18.00;99.90;;;;;;6339215;22;20028;-79
2021/04/27 08:54:30;;;;;;;8.05;2.10;;;18.10;99.90;;;;;;6311618;22;20085;-83
2021/04/27 08:56:56;;;;;;;6.95;2.97;;;18.20;99.90;;;;;;6339541;22;20010;-77
2021/04/27 08:59:22;;;;;;;7.78;3.03;;;18.20;99.90;;;;;;6339100;22;20034;-80
2021/04/27 09:01:49;;;;;;;7.20;3.25;;;18.20;99.90;;;;;;6339084;22;20080;-78
2021/04/27 09:04:55;;;;;;;7.18;2.78;;;18.40;99.90;;;;;;6339066;22;20014;-84
2021/04/27 09:07:22;;;;;;;8.07;3.15;;;18.40;99.90;;;;;;6338168;22;20340;-83
2021/04/27 09:09:53;;;;;;;6.80;2.50;;;18.40;99.90;;;;;;6339090;22;20026;-81
2021/04/27 09:12:21;;;;;;;12.18;3.13;;;18.40;99.90;;;;;;6338836;22;20003;-77
2021/04/27 09:14:47;;;;;;;8.30;2.67;;;18.40;99.90;;;;;;6338959;22;20425;-78
2021/04/27 09:17:14;;;;;;;4.25;2.40;;;18.40;99.90;;;;;;6338925;22;20044;-83
2021/04/27 09:19:50;;;;;;;8.10;2.67;;;18.30;99.90;;;;;;6338963;22;20437;-83
2021/04/27 09:22:21;;;;;;;5.60;2.40;;;18.30;99.90;;;;;;6338350;22;20444;-83
2021/04/27 09:24:53;;;;;;;9.30;3.30;;;18.30;99.90;;;;;;6338921;22;20379;-82
2021/04/27 09:27:29;;;;;;;7.10;2.60;;;18.30;99.90;;;;;;6338778;22;20027;-81
2021/04/27 09:29:58;;;;;;;5.85;2.33;;;18.30;99.90;;;;;;6338840;22;20081;-84
2021/04/27 09:32:37;;;;;;;8.68;2.92;;;18.20;99.90;;;;;;6338825;22;20044;-84
2021/04/27 09:35:21;;;;;;;6.65;2.67;;;18.30;99.90;;;;;;6338761;22;20010;-77
2021/04/27 09:38:06;;;;;;;5.57;2.38;;;18.30;99.90;;;;;;6339227;22;20444;-81
2021/04/27 09:40:42;;;;;;;8.65;3.20;;;18.20;99.90;;;;;;6338793;22;20002;-84
2021/04/27 09:43:08;;;;;;;6.28;2.65;;;18.30;99.90;;;;;;6340558;22;20367;-81
2021/04/27 09:45:45;;;;;;;10.73;2.57;;;18.50;99.90;;;;;;6339951;22;20013;-83
2021/04/27 09:48:12;;;;;;;7.00;2.25;;;18.50;99.90;;;;;;6339240;22;20229;-80
2021/04/27 09:50:39;;;;;;;7.38;2.60;;;18.60;99.90;;;;;;6339253;22;20005;-77
2021/04/27 09:53:05;;;;;;;7.85;2.60;;;18.70;99.90;;;;;;6339029;22;19998;-83
2021/04/27 09:55:34;;;;;;;7.90;3.03;;;18.70;99.90;;;;;;6338924;22;20047;-77
2021/04/27 09:58:02;;;;;;;7.55;2.35;;;18.70;99.90;;;;;;6344540;22;19995;-84
2021/04/27 10:00:33;;;;;;;8.85;3.55;;;18.70;99.90;;;;;;6338994;22;20093;-81
2021/04/27 10:03:11;;;;;;;5.97;2.60;;;18.80;99.90;;;;;;6338590;22;19994;-84
2021/04/27 10:05:39;;;;;;;7.60;2.63;;;18.70;99.90;;;;;;6338562;22;20003;-83
2021/04/27 10:08:05;;;;;;;7.75;2.42;;;18.80;99.90;;;;;;6338559;22;20013;-83
2021/04/27 10:10:34;;;;;;;4.85;2.53;;;18.80;99.90;;;;;;6338801;22;20328;-81
2021/04/27 10:13:02;;;;;;;9.30;2.85;;;18.70;99.90;;;;;;6338724;22;19998;-78
2021/04/27 10:15:29;;;;;;;11.93;3.08;;;18.80;99.90;;;;;;6338676;22;20055;-78
2021/04/27 10:18:01;;;;;;;8.43;2.85;;;18.90;99.90;;;;;;6338803;22;19995;-83
2021/04/27 10:20:27;;;;;;;8.98;2.65;;;18.90;99.90;;;;;;6338743;22;20007;-84
2021/04/27 10:22:53;;;;;;;9.80;2.55;;;19.00;99.90;;;;;;6338832;22;19999;-83
2021/04/27 10:25:28;;;;;;;6.70;2.22;;;19.00;99.90;;;;;;6310823;22;20003;-81
2021/04/27 10:28:02;;;;;;;12.77;3.03;;;18.90;99.90;;;;;;6338355;22;20011;-83
2021/04/27 10:30:40;;;;;;;8.25;2.53;;;18.90;99.90;;;;;;6338323;22;20002;-84
2021/04/27 10:33:06;;;;;;;11.25;2.72;;;18.90;99.90;;;;;;6338377;22;20333;-78
2021/04/27 10:35:37;;;;;;;15.07;2.87;;;19.00;99.90;;;;;;6338376;22;20007;-83
2021/04/27 10:38:16;;;;;;;6.90;2.78;;;19.10;99.90;;;;;;6338385;22;20078;-78
2021/04/27 10:41:01;;;;;;;9.27;3.97;;;19.20;99.90;;;;;;6338283;22;20002;-85
2021/04/27 10:43:27;;;;;;;15.75;3.22;;;19.10;99.90;;;;;;6338180;22;19998;-79
2021/04/27 10:46:35;;;;;;;7.80;2.97;;;19.20;99.90;;;;;;6310495;22;19995;-80
2021/04/27 10:49:27;;;;;;;11.38;2.75;;;19.00;99.90;;;;;;6337997;22;20009;-77
2021/04/27 10:51:55;;;;;;;6.65;2.80;;;18.90;99.90;;;;;;6338163;22;19998;-81
2021/04/27 10:54:22;;;;;;;6.40;2.53;;;19.00;99.90;;;;;;6338015;22;20014;-81
2021/04/27 10:57:00;;;;;;;5.38;2.10;;;19.00;99.90;;;;;;6310395;22;20018;-78
2021/04/27 10:59:48;;;;;;;7.47;1.90;;;19.10;99.90;;;;;;6337866;22;20014;-77
2021/04/27 11:02:17;;;;;;;4.65;1.88;;;19.20;99.90;;;;;;6338572;22;20329;-83
2021/04/27 11:04:50;;;;;;;6.60;2.47;;;19.10;99.90;;;;;;6338233;22;20448;-79
2021/04/27 11:07:19;;;;;;;6.38;2.22;;;19.30;99.90;;;;;;6338451;22;20320;-77
2021/04/27 11:10:01;;;;;;;8.77;2.58;;;19.50;99.90;;;;;;6338330;22;20056;-83
2021/04/27 11:12:32;;;;;;;8.80;3.10;;;19.50;99.90;;;;;;6340024;22;19995;-77
2021/04/27 11:15:13;;;;;;;6.53;2.13;;;19.50;99.90;;;;;;6337968;22;20019;-78
2021/04/27 11:17:52;;;;;;;8.00;2.20;;;19.30;99.90;;;;;;6310426;22;20060;-77
2021/04/27 11:20:47;;;;;;;5.57;2.25;;;19.20;99.90;;;;;;6337864;22;20006;-78
2021/04/27 11:23:56;;;;;;;8.48;2.97;;;19.20;99.90;;;;;;6337949;22;20002;-84
2021/04/27 11:26:36;;;;;;;11.70;3.25;;;19.20;99.90;;;;;;6338057;22;20083;-83
2021/04/27 11:29:08;;;;;;;9.00;2.72;;;19.30;99.90;;;;;;6310781;22;20007;-84
2021/04/27 11:31:53;;;;;;;7.95;2.78;;;19.30;99.90;;;;;;6338054;22;20003;-83
2021/04/27 11:34:19;;;;;;;8.60;3.28;;;19.20;99.90;;;;;;6337836;22;20021;-78
2021/04/27 11:36:45;;;;;;;7.97;2.65;;;19.20;99.90;;;;;;6338230;22;20005;-84
2021/04/27 11:39:13;;;;;;;5.97;2.45;;;19.20;99.90;;;;;;6338288;22;20049;-84
2021/04/27 11:42:03;;;;;;;10.02;2.35;;;19.00;99.90;;;;;;6337786;22;20030;-83
2021/04/27 11:44:40;;;;;;;5.68;2.33;;;18.80;99.90;;;;;;6338401;22;20048;-83
2021/04/27 11:47:17;;;;;;;9.60;3.83;;;18.80;99.90;;;;;;6339990;22;20003;-81
2021/04/27 11:50:05;;;;;;;9.98;2.95;;;18.80;99.90;;;;;;6339826;22;20003;-84
2021/04/27 11:52:54;;;;;;;13.95;2.97;;;18.80;99.90;;;;;;6339799;22;20441;-79
2021/04/27 11:55:23;;;;;;;8.98;2.90;;;18.70;99.90;;;;;;6339491;22;20014;-83
2021/04/27 11:58:11;;;;;;;8.02;3.08;;;18.70;99.90;;;;;;6339786;22;19995;-77
2021/04/27 12:00:59;;;;;;;8.63;3.15;;;18.50;99.90;;;;;;6318350;22;20019;-82
2021/04/27 12:03:25;;;;;;;9.50;4.53;;;18.40;99.90;;;;;;6339417;22;20026;-79
2021/04/27 12:06:16;;;;;;;8.60;4.05;;;18.40;99.90;;;;;;6339530;22;19999;-84
2021/04/27 12:08:45;;;;;;;8.25;3.45;;;18.30;99.90;;;;;;6312335;22;20025;-80
2021/04/27 12:11:30;;;;;;;11.57;4.22;;;18.30;99.90;;;;;;6339601;22;20430;-83
2021/04/27 12:14:07;;;;;;;11.52;4.45;;;18.10;99.90;;;;;;6339455;22;20003;-84
2021/04/27 12:16:41;;;;;;;17.58;5.55;;;18.00;99.90;;;;;;6339329;22;20436;-84
2021/04/27 12:19:08;;;;;;;11.55;3.83;;;18.00;99.90;;;;;;6339592;22;20055;-83
2021/04/27 12:21:45;;;;;;;16.55;5.18;;;17.90;99.90;;;;;;6339480;22;19999;-83
2021/04/27 12:24:21;;;;;;;14.65;4.43;;;17.80;99.90;;;;;;6339889;22;20006;-81
2021/04/27 12:26:59;;;;;;;9.73;3.33;;;17.70;99.90;;;;;;6346095;22;20009;-81
2021/04/27 12:29:30;;;;;;;11.88;4.57;;;17.70;99.90;;;;;;6339783;22;20074;-78
2021/04/27 12:32:02;;;;;;;12.02;5.05;;;17.60;99.90;;;;;;6339795;22;20322;-83
2021/04/27 12:34:28;;;;;;;14.68;4.68;;;17.70;99.90;;;;;;6339235;22;20021;-77
2021/04/27 12:36:54;;;;;;;9.77;3.92;;;17.60;99.90;;;;;;6339452;22;19995;-81
2021/04/27 12:39:22;;;;;;;19.20;5.88;;;17.60;99.90;;;;;;6339271;22;20003;-83
2021/04/27 12:41:54;;;;;;;17.30;4.47;;;17.60;99.90;;;;;;6339437;22;20425;-83
2021/04/27 12:44:38;;;;;;;18.27;4.85;;;17.70;99.90;;;;;;6339251;22;20005;-81
2021/04/27 12:47:25;;;;;;;13.57;4.25;;;17.90;99.90;;;;;;6339358;22;20007;-79
2021/04/27 12:49:59;;;;;;;10.40;4.30;;;17.80;99.90;;;;;;6339241;22;20052;-83
2021/04/27 12:52:26;;;;;;;14.38;4.75;;;17.80;99.90;;;;;;6339325;22;20003;-84
2021/04/27 12:54:57;;;;;;;12.60;4.65;;;17.90;99.90;;;;;;6338973;22;20007;-84
2021/04/27 12:57:24;;;;;;;13.82;5.05;;;17.90;99.90;;;;;;6339100;22;20461;-84
2021/04/27 13:00:00;;;;;;;13.05;4.03;;;17.80;99.90;;;;;;6339033;22;20022;-84
2021/04/27 13:02:26;;;;;;;15.68;5.43;;;17.80;99.90;;;;;;6339177;22;20070;-83
2021/04/27 13:04:55;;;;;;;17.92;5.32;;;17.70;99.90;;;;;;6339154;22;19999;-80